createdAt,value
2019-03-30T00:01:41.133Z,7.55
2019-03-30T00:04:09.916Z,8.28
2019-03-30T00:06:38.831Z,9.00
2019-03-30T00:09:09.613Z,8.05
2019-03-30T00:11:38.824Z,8.78
2019-03-30T00:14:07.349Z,9.48
2019-03-30T00:16:36.985Z,9.53
2019-03-30T00:19:06.108Z,9.43
2019-03-30T00:21:35.085Z,10.93
2019-03-30T00:24:03.502Z,10.15
2019-03-30T00:26:32.672Z,9.45
2019-03-30T00:29:01.582Z,8.68
2019-03-30T00:31:31.596Z,8.48
2019-03-30T00:34:02.205Z,10.68
2019-03-30T00:36:31.357Z,8.35
2019-03-30T00:38:59.961Z,9.03
2019-03-30T00:41:28.420Z,8.28
2019-03-30T00:43:57.184Z,8.18
2019-03-30T00:46:26.079Z,7.87
2019-03-30T00:48:57.381Z,7.58
2019-03-30T00:51:26.324Z,9.35
2019-03-30T00:53:55.317Z,9.53
2019-03-30T00:56:24.917Z,10.05
2019-03-30T00:58:53.858Z,8.80
2019-03-30T01:01:22.786Z,9.75
2019-03-30T01:03:51.478Z,8.40
2019-03-30T01:06:19.951Z,8.48
2019-03-30T01:08:49.146Z,8.93
2019-03-30T01:11:17.995Z,8.53
2019-03-30T01:13:46.506Z,7.47
2019-03-30T01:16:15.390Z,7.72
2019-03-30T01:18:44.554Z,7.75
2019-03-30T01:21:13.980Z,9.50
2019-03-30T01:23:43.568Z,8.18
2019-03-30T01:26:12.316Z,8.35
2019-03-30T01:28:42.119Z,9.63
2019-03-30T01:31:10.597Z,9.15
2019-03-30T01:33:39.068Z,9.28
2019-03-30T01:36:08.244Z,10.55
2019-03-30T01:38:37.456Z,10.80
2019-03-30T01:41:07.230Z,9.63
2019-03-30T01:43:35.819Z,8.50
2019-03-30T01:46:04.273Z,8.40
2019-03-30T01:48:33.066Z,7.53
2019-03-30T01:51:01.974Z,9.18
2019-03-30T01:53:31.102Z,10.72
2019-03-30T01:56:00.946Z,7.67
2019-03-30T01:58:29.699Z,8.13
2019-03-30T02:00:58.802Z,8.15
2019-03-30T02:03:27.651Z,7.65
2019-03-30T02:05:56.264Z,8.20
2019-03-30T02:08:24.688Z,8.83
2019-03-30T02:10:53.586Z,9.93
2019-03-30T02:13:23.086Z,9.30
2019-03-30T02:15:52.763Z,9.05
2019-03-30T02:18:21.478Z,9.80
2019-03-30T02:20:50.559Z,10.30
2019-03-30T02:23:19.399Z,9.38
2019-03-30T02:25:48.172Z,8.88
2019-03-30T02:28:17.799Z,8.00
2019-03-30T02:30:46.762Z,8.60
2019-03-30T02:33:15.411Z,8.00
2019-03-30T02:35:44.602Z,8.05
2019-03-30T02:38:13.063Z,7.55
2019-03-30T02:40:41.640Z,7.85
2019-03-30T02:43:10.452Z,7.47
2019-03-30T02:45:39.958Z,8.48
2019-03-30T02:48:09.888Z,9.25
2019-03-30T02:50:49.374Z,9.70
2019-03-30T02:53:08.783Z,9.00
2019-03-30T02:55:37.764Z,9.65
2019-03-30T02:58:06.258Z,9.93
2019-03-30T03:00:35.499Z,9.23
2019-03-30T03:03:04.928Z,9.20
2019-03-30T03:05:34.228Z,8.33
2019-03-30T03:08:03.228Z,8.40
2019-03-30T03:10:32.397Z,8.80
2019-03-30T03:13:02.053Z,8.08
2019-03-30T03:15:30.613Z,8.90
2019-03-30T03:17:59.536Z,8.38
2019-03-30T03:20:28.649Z,7.33
2019-03-30T03:22:57.211Z,8.73
2019-03-30T03:25:25.993Z,8.78
2019-03-30T03:27:54.527Z,10.20
2019-03-30T03:30:23.079Z,10.43
2019-03-30T03:32:51.650Z,10.08
2019-03-30T03:35:20.691Z,9.55
2019-03-30T03:37:49.501Z,8.80
2019-03-30T03:40:18.403Z,8.25
2019-03-30T03:42:48.086Z,8.20
2019-03-30T03:45:16.968Z,8.23
2019-03-30T03:47:45.496Z,8.23
2019-03-30T03:50:40.440Z,8.25
2019-03-30T03:53:10.450Z,7.87
2019-03-30T03:55:39.944Z,8.60
2019-03-30T03:58:08.541Z,10.32
2019-03-30T04:00:37.394Z,9.13
2019-03-30T04:03:05.828Z,9.08
2019-03-30T04:05:34.918Z,9.58
2019-03-30T04:08:03.498Z,8.83
2019-03-30T04:10:33.833Z,8.73
2019-03-30T04:13:06.901Z,8.88
2019-03-30T04:15:35.246Z,8.48
2019-03-30T04:18:04.219Z,7.03
2019-03-30T04:20:32.735Z,7.85
2019-03-30T04:23:01.686Z,7.95
2019-03-30T04:25:30.587Z,7.87
2019-03-30T04:27:59.351Z,7.50
2019-03-30T04:30:28.227Z,7.58
2019-03-30T04:32:56.846Z,8.70
2019-03-30T04:35:26.149Z,9.50
2019-03-30T04:37:54.799Z,9.10
2019-03-30T04:40:23.531Z,9.23
2019-03-30T04:42:52.777Z,13.88
2019-03-30T04:45:21.302Z,9.50
2019-03-30T04:47:49.765Z,8.88
2019-03-30T04:50:18.840Z,7.53
2019-03-30T04:52:47.379Z,7.70
2019-03-30T04:55:17.119Z,7.03
2019-03-30T04:57:49.688Z,7.40
2019-03-30T05:00:17.176Z,6.85
2019-03-30T05:02:46.039Z,7.85
2019-03-30T05:05:14.878Z,8.20
2019-03-30T05:07:44.504Z,7.92
2019-03-30T05:10:13.006Z,8.68
2019-03-30T05:12:42.325Z,9.20
2019-03-30T05:15:10.950Z,9.45
2019-03-30T05:17:47.617Z,9.38
2019-03-30T05:20:10.701Z,9.15
2019-03-30T05:22:39.822Z,9.05
2019-03-30T05:25:08.339Z,9.05
2019-03-30T05:27:36.998Z,8.20
2019-03-30T05:30:06.146Z,7.83
2019-03-30T05:32:35.314Z,7.12
2019-03-30T05:35:04.411Z,8.28
2019-03-30T05:37:33.251Z,7.80
2019-03-30T05:40:02.382Z,7.60
2019-03-30T05:42:31.471Z,7.30
2019-03-30T05:45:00.469Z,7.45
2019-03-30T05:47:29.467Z,7.62
2019-03-30T05:49:58.205Z,8.70
2019-03-30T05:52:27.138Z,10.32
2019-03-30T05:54:56.484Z,8.60
2019-03-30T05:57:25.142Z,9.08
2019-03-30T05:59:55.950Z,8.25
2019-03-30T06:02:24.421Z,8.90
2019-03-30T06:04:52.869Z,8.35
2019-03-30T06:07:21.256Z,7.15
2019-03-30T06:09:49.781Z,6.50
2019-03-30T06:12:18.365Z,6.67
2019-03-30T06:14:47.389Z,6.92
2019-03-30T06:17:15.918Z,12.35
2019-03-30T06:19:45.785Z,7.08
2019-03-30T06:22:14.950Z,8.05
2019-03-30T06:24:43.547Z,6.50
2019-03-30T06:27:12.054Z,6.80
2019-03-30T06:29:41.595Z,7.78
2019-03-30T06:32:11.036Z,7.87
2019-03-30T06:34:39.798Z,8.33
2019-03-30T06:37:09.387Z,8.03
2019-03-30T06:39:38.752Z,9.05
2019-03-30T06:42:08.004Z,6.70
2019-03-30T06:44:37.543Z,7.10
2019-03-30T06:47:06.191Z,6.85
2019-03-30T06:49:35.448Z,6.08
2019-03-30T06:52:04.128Z,6.62
2019-03-30T06:54:33.296Z,5.70
2019-03-30T06:57:02.664Z,5.78
2019-03-30T06:59:31.696Z,5.75
2019-03-30T07:02:00.544Z,6.62
2019-03-30T07:04:30.234Z,6.78
2019-03-30T07:06:58.821Z,7.22
2019-03-30T07:09:27.318Z,8.28
2019-03-30T07:11:57.113Z,7.33
2019-03-30T07:14:25.819Z,8.00
2019-03-30T07:16:54.673Z,8.18
2019-03-30T07:19:23.513Z,6.80
2019-03-30T07:21:52.338Z,6.75
2019-03-30T07:24:21.879Z,5.95
2019-03-30T07:26:50.298Z,7.70
2019-03-30T07:29:19.254Z,5.05
2019-03-30T07:31:47.910Z,5.60
2019-03-30T07:34:16.767Z,6.47
2019-03-30T07:36:45.539Z,5.47
2019-03-30T07:39:15.085Z,5.17
2019-03-30T07:41:44.105Z,5.70
2019-03-30T07:44:12.633Z,8.70
2019-03-30T07:46:41.300Z,6.55
2019-03-30T07:49:09.884Z,7.33
2019-03-30T07:51:38.452Z,7.35
2019-03-30T07:54:08.430Z,6.33
2019-03-30T07:56:37.556Z,7.72
2019-03-30T07:59:07.057Z,7.58
2019-03-30T08:01:36.078Z,6.55
2019-03-30T08:04:04.736Z,5.33
2019-03-30T08:06:34.464Z,6.08
2019-03-30T08:09:03.927Z,5.72
2019-03-30T08:11:33.797Z,5.42
2019-03-30T08:14:02.940Z,5.35
2019-03-30T08:16:32.690Z,5.33
2019-03-30T08:19:01.885Z,6.00
2019-03-30T08:21:31.258Z,5.62
2019-03-30T08:23:59.991Z,7.22
2019-03-30T08:26:29.074Z,8.15
2019-03-30T08:28:58.463Z,7.20
2019-03-30T08:31:27.979Z,11.00
2019-03-30T08:33:56.798Z,6.70
2019-03-30T08:36:25.260Z,7.55
2019-03-30T08:38:54.159Z,6.28
2019-03-30T08:41:23.040Z,5.85
2019-03-30T08:43:51.720Z,5.25
2019-03-30T08:46:20.839Z,8.10
2019-03-30T08:48:49.484Z,6.10
2019-03-30T08:51:20.693Z,5.47
2019-03-30T08:53:54.908Z,5.55
2019-03-30T08:56:19.768Z,5.20
2019-03-30T08:58:49.120Z,6.28
2019-03-30T09:01:18.808Z,9.08
2019-03-30T09:03:48.135Z,8.50
2019-03-30T09:06:17.486Z,11.55
2019-03-30T09:08:46.161Z,8.65
2019-03-30T09:11:14.745Z,16.10
2019-03-30T09:13:44.337Z,14.00
2019-03-30T09:16:13.551Z,13.38
2019-03-30T09:18:42.562Z,11.22
2019-03-30T09:21:11.274Z,13.45
2019-03-30T09:23:40.512Z,6.28
2019-03-30T09:26:09.142Z,16.75
2019-03-30T09:28:39.159Z,19.07
2019-03-30T09:31:08.048Z,11.78
2019-03-30T09:33:36.758Z,12.98
2019-03-30T09:36:06.091Z,8.00
2019-03-30T09:38:34.964Z,14.47
2019-03-30T09:41:03.423Z,17.50
2019-03-30T09:43:32.491Z,12.23
2019-03-30T09:46:01.004Z,7.30
2019-03-30T09:48:29.916Z,9.50
2019-03-30T09:50:59.136Z,8.90
2019-03-30T09:53:27.944Z,11.27
2019-03-30T09:55:57.268Z,5.77
2019-03-30T09:58:27.354Z,9.60
2019-03-30T10:00:57.225Z,7.77
2019-03-30T10:03:27.129Z,8.95
2019-03-30T10:05:55.631Z,8.30
2019-03-30T10:08:24.591Z,7.25
2019-03-30T10:10:53.910Z,7.67
2019-03-30T10:13:22.873Z,8.43
2019-03-30T10:15:52.393Z,7.17
2019-03-30T10:18:21.662Z,8.40
2019-03-30T10:20:50.878Z,14.38
2019-03-30T10:23:22.034Z,11.10
2019-03-30T10:25:51.940Z,9.70
2019-03-30T10:28:22.188Z,15.27
2019-03-30T10:30:51.278Z,13.30
2019-03-30T10:33:20.133Z,13.65
2019-03-30T10:35:49.835Z,11.47
2019-03-30T10:38:18.787Z,12.88
2019-03-30T10:40:47.482Z,11.97
2019-03-30T10:43:16.794Z,16.50
2019-03-30T10:45:46.127Z,12.90
2019-03-30T10:48:16.984Z,12.65
2019-03-30T10:50:46.147Z,13.15
2019-03-30T10:53:14.851Z,11.15
2019-03-30T10:55:44.052Z,12.47
2019-03-30T10:58:13.044Z,16.17
2019-03-30T11:00:41.853Z,15.10
2019-03-30T11:03:10.948Z,15.93
2019-03-30T11:05:39.684Z,17.00
2019-03-30T11:08:09.550Z,14.50
2019-03-30T11:10:38.942Z,13.85
2019-03-30T11:13:07.330Z,13.00
2019-03-30T11:15:35.683Z,12.07
2019-03-30T11:18:04.903Z,13.63
2019-03-30T11:20:34.427Z,10.23
2019-03-30T11:23:04.950Z,11.50
2019-03-30T11:25:36.113Z,14.60
2019-03-30T11:28:04.838Z,15.25
2019-03-30T11:30:33.925Z,12.50
2019-03-30T11:33:04.363Z,11.40
2019-03-30T11:35:33.050Z,12.05
2019-03-30T11:38:01.545Z,14.27
2019-03-30T11:40:30.227Z,14.63
2019-03-30T11:42:59.393Z,14.43
2019-03-30T11:45:29.117Z,10.27
2019-03-30T11:47:58.439Z,12.03
2019-03-30T11:50:28.181Z,12.65
2019-03-30T11:52:56.937Z,10.37
2019-03-30T11:55:27.055Z,11.80
2019-03-30T11:57:55.677Z,12.30
2019-03-30T12:00:24.559Z,8.60
2019-03-30T12:02:53.129Z,9.28
2019-03-30T12:05:21.980Z,8.60
2019-03-30T12:07:53.124Z,14.50
2019-03-30T12:10:22.313Z,9.87
2019-03-30T12:12:51.072Z,10.65
2019-03-30T12:15:19.693Z,7.65
2019-03-30T12:17:48.482Z,11.43
2019-03-30T12:20:17.423Z,10.48
2019-03-30T12:22:46.378Z,11.03
2019-03-30T12:25:14.764Z,9.50
2019-03-30T12:27:44.242Z,8.60
2019-03-30T12:30:12.935Z,7.37
2019-03-30T12:32:41.587Z,10.55
2019-03-30T12:35:10.510Z,11.30
2019-03-30T12:37:39.646Z,10.50
2019-03-30T12:40:09.379Z,7.65
2019-03-30T12:42:41.962Z,8.25
2019-03-30T12:45:10.901Z,6.50
2019-03-30T12:47:40.212Z,10.73
2019-03-30T12:50:09.524Z,9.80
2019-03-30T12:52:38.826Z,8.40
2019-03-30T12:55:08.204Z,8.40
2019-03-30T12:57:37.714Z,8.65
2019-03-30T13:00:07.147Z,6.83
2019-03-30T13:02:35.884Z,6.65
2019-03-30T13:05:07.475Z,7.23
2019-03-30T13:07:36.461Z,5.60
2019-03-30T13:10:05.721Z,6.53
2019-03-30T13:12:34.755Z,6.53
2019-03-30T13:15:04.011Z,6.63
2019-03-30T13:17:32.726Z,5.43
2019-03-30T13:20:01.778Z,7.55
2019-03-30T13:22:31.263Z,5.20
2019-03-30T13:24:59.903Z,6.70
2019-03-30T13:27:28.838Z,6.45
2019-03-30T13:29:58.159Z,5.63
2019-03-30T13:32:26.890Z,7.40
2019-03-30T13:34:57.167Z,7.20
2019-03-30T13:37:26.115Z,7.55
2019-03-30T13:39:56.689Z,7.87
2019-03-30T13:42:25.915Z,6.55
2019-03-30T13:44:55.175Z,6.93
2019-03-30T13:47:23.674Z,5.22
2019-03-30T13:49:53.220Z,5.00
2019-03-30T13:52:23.079Z,5.17
2019-03-30T13:54:51.633Z,6.23
2019-03-30T13:57:21.438Z,4.10
2019-03-30T13:59:49.864Z,4.90
2019-03-30T14:02:20.057Z,6.30
2019-03-30T14:04:48.712Z,5.50
2019-03-30T14:07:18.379Z,5.90
2019-03-30T14:09:47.035Z,6.70
2019-03-30T14:12:16.627Z,6.03
2019-03-30T14:14:46.267Z,5.10
2019-03-30T14:17:15.171Z,6.43
2019-03-30T14:19:44.606Z,6.37
2019-03-30T14:22:13.867Z,5.12
2019-03-30T14:24:42.933Z,4.83
2019-03-30T14:27:11.593Z,4.73
2019-03-30T14:29:40.567Z,4.30
2019-03-30T14:32:09.622Z,4.60
2019-03-30T14:34:38.615Z,4.23
2019-03-30T14:37:07.828Z,5.70
2019-03-30T14:39:36.703Z,6.43
2019-03-30T14:42:06.158Z,5.10
2019-03-30T14:44:35.051Z,6.22
2019-03-30T14:47:03.791Z,5.05
2019-03-30T14:49:33.231Z,5.45
2019-03-30T14:52:01.911Z,7.35
2019-03-30T14:54:31.136Z,5.45
2019-03-30T14:57:00.372Z,5.40
2019-03-30T14:59:30.236Z,5.12
2019-03-30T15:01:59.431Z,4.62
2019-03-30T15:04:28.121Z,4.30
2019-03-30T15:06:56.933Z,4.40
2019-03-30T15:09:25.856Z,4.27
2019-03-30T15:11:55.311Z,4.30
2019-03-30T15:14:24.411Z,4.60
2019-03-30T15:16:53.354Z,5.10
2019-03-30T15:19:22.653Z,4.83
2019-03-30T15:21:51.652Z,6.30
2019-03-30T15:24:20.758Z,6.80
2019-03-30T15:26:59.658Z,5.10
2019-03-30T15:29:21.010Z,5.25
2019-03-30T15:31:49.714Z,5.27
2019-03-30T15:34:18.810Z,5.47
2019-03-30T15:36:47.783Z,4.93
2019-03-30T15:39:16.740Z,7.47
2019-03-30T15:41:45.799Z,5.23
2019-03-30T15:44:15.211Z,4.22
2019-03-30T15:46:44.235Z,5.23
2019-03-30T15:49:12.834Z,4.25
2019-03-30T15:51:41.700Z,5.87
2019-03-30T15:54:10.548Z,4.90
2019-03-30T15:56:39.815Z,9.00
2019-03-30T15:59:09.903Z,17.10
2019-03-30T16:01:38.489Z,11.15
2019-03-30T16:04:07.307Z,11.77
2019-03-30T16:06:37.505Z,9.83
2019-03-30T16:09:07.105Z,12.80
2019-03-30T16:11:38.400Z,12.63
2019-03-30T16:14:07.286Z,8.43
2019-03-30T16:16:37.041Z,8.90
2019-03-30T16:19:07.514Z,9.77
2019-03-30T16:21:37.168Z,8.27
2019-03-30T16:24:05.910Z,6.43
2019-03-30T16:26:41.947Z,6.20
2019-03-30T16:29:05.655Z,8.05
2019-03-30T16:31:35.463Z,7.90
2019-03-30T16:34:04.218Z,7.73
2019-03-30T16:36:33.575Z,7.67
2019-03-30T16:39:04.718Z,11.27
2019-03-30T16:41:34.622Z,8.25
2019-03-30T16:44:03.113Z,7.63
2019-03-30T16:46:32.072Z,8.20
2019-03-30T16:49:00.740Z,15.90
2019-03-30T16:51:30.320Z,13.45
2019-03-30T16:53:59.472Z,12.35
2019-03-30T16:56:28.683Z,8.05
2019-03-30T16:58:57.765Z,9.95
2019-03-30T17:01:26.460Z,7.80
2019-03-30T17:03:55.630Z,6.05
2019-03-30T17:06:24.728Z,7.30
2019-03-30T17:08:53.698Z,6.27
2019-03-30T17:11:22.825Z,6.25
2019-03-30T17:13:52.154Z,9.57
2019-03-30T17:16:21.461Z,10.27
2019-03-30T17:18:50.428Z,8.70
2019-03-30T17:21:19.955Z,6.67
2019-03-30T17:23:49.212Z,7.45
2019-03-30T17:26:18.822Z,7.03
2019-03-30T17:28:48.701Z,6.70
2019-03-30T17:31:18.115Z,7.90
2019-03-30T17:33:47.545Z,6.50
2019-03-30T17:36:18.717Z,5.90
2019-03-30T17:38:50.168Z,6.73
2019-03-30T17:41:18.964Z,6.60
2019-03-30T17:43:47.608Z,7.65
2019-03-30T17:46:17.655Z,7.08
2019-03-30T17:48:47.117Z,9.95
2019-03-30T17:51:16.493Z,10.03
2019-03-30T17:53:45.998Z,11.68
2019-03-30T17:56:15.333Z,13.10
2019-03-30T17:58:44.920Z,11.43
2019-03-30T18:01:15.714Z,12.00
2019-03-30T18:03:44.514Z,13.78
2019-03-30T18:06:13.265Z,10.60
2019-03-30T18:08:42.517Z,23.67
2019-03-30T18:11:11.610Z,24.35
2019-03-30T18:13:40.267Z,22.70
2019-03-30T18:16:09.223Z,19.80
2019-03-30T18:18:38.747Z,18.55
2019-03-30T18:21:07.407Z,13.90
2019-03-30T18:23:36.088Z,16.60
2019-03-30T18:26:05.285Z,19.13
2019-03-30T18:28:34.293Z,17.50
2019-03-30T18:31:02.922Z,15.27
2019-03-30T18:33:32.077Z,13.85
2019-03-30T18:36:01.420Z,13.47
2019-03-30T18:38:30.361Z,14.30
2019-03-30T18:40:58.877Z,12.20
2019-03-30T18:43:27.580Z,11.83
2019-03-30T18:45:56.677Z,14.43
2019-03-30T18:48:25.546Z,12.77
2019-03-30T18:50:54.053Z,12.23
2019-03-30T18:53:22.820Z,11.50
2019-03-30T18:55:52.431Z,13.25
2019-03-30T18:58:20.990Z,15.53
2019-03-30T19:00:49.694Z,16.95
2019-03-30T19:03:20.220Z,13.20
2019-03-30T19:05:50.490Z,15.10
2019-03-30T19:08:19.406Z,13.17
2019-03-30T19:10:48.283Z,14.30
2019-03-30T19:13:17.493Z,15.67
2019-03-30T19:15:46.715Z,14.23
2019-03-30T19:18:15.672Z,15.20
2019-03-30T19:20:45.151Z,14.35
2019-03-30T19:23:14.333Z,15.50
2019-03-30T19:25:43.280Z,13.60
2019-03-30T19:28:12.014Z,10.63
2019-03-30T19:30:42.347Z,13.53
2019-03-30T19:33:11.256Z,16.00
2019-03-30T19:35:40.377Z,12.63
2019-03-30T19:38:11.046Z,12.23
2019-03-30T19:40:39.984Z,14.50
2019-03-30T19:43:09.135Z,15.32
2019-03-30T19:45:37.894Z,18.40
2019-03-30T19:48:07.437Z,15.27
2019-03-30T19:50:37.205Z,18.60
2019-03-30T19:53:07.119Z,13.10
2019-03-30T19:55:36.697Z,12.50
2019-03-30T19:58:05.836Z,13.65
2019-03-30T20:00:38.494Z,17.98
2019-03-30T20:03:06.198Z,16.25
2019-03-30T20:05:35.455Z,15.13
2019-03-30T20:08:12.016Z,14.75
2019-03-30T20:10:52.164Z,13.25
2019-03-30T20:13:21.072Z,15.15
2019-03-30T20:15:50.373Z,17.42
2019-03-30T20:18:19.556Z,16.23
2019-03-30T20:20:48.200Z,14.95
2019-03-30T20:23:17.684Z,13.18
2019-03-30T20:25:46.552Z,20.48
2019-03-30T20:28:16.109Z,17.42
2019-03-30T20:30:44.713Z,23.83
2019-03-30T20:33:14.055Z,30.12
2019-03-30T20:35:43.252Z,35.38
2019-03-30T20:38:11.873Z,29.52
2019-03-30T20:40:41.382Z,34.43
2019-03-30T20:43:10.555Z,31.30
2019-03-30T20:45:39.325Z,32.23
2019-03-30T20:48:07.802Z,28.55
2019-03-30T20:50:36.849Z,26.10
2019-03-30T20:53:05.602Z,27.70
2019-03-30T20:55:35.530Z,31.55
2019-03-30T20:58:04.647Z,24.02
2019-03-30T21:00:33.174Z,29.50
2019-03-30T21:03:01.947Z,29.52
2019-03-30T21:05:30.766Z,29.90
2019-03-30T21:07:59.466Z,32.23
2019-03-30T21:10:28.135Z,36.42
2019-03-30T21:12:57.219Z,33.30
2019-03-30T21:15:25.950Z,38.00
2019-03-30T21:17:54.419Z,35.05
2019-03-30T21:20:23.065Z,36.40
2019-03-30T21:22:51.684Z,47.83
2019-03-30T21:25:20.314Z,41.15
2019-03-30T21:27:50.268Z,38.90
2019-03-30T21:30:19.500Z,43.00
2019-03-30T21:32:48.819Z,48.55
2019-03-30T21:35:18.609Z,43.45
2019-03-30T21:37:47.401Z,40.25
2019-03-30T21:40:16.263Z,37.53
2019-03-30T21:42:44.953Z,40.17
2019-03-30T21:45:13.549Z,41.20
2019-03-30T21:47:42.374Z,36.10
2019-03-30T21:50:12.991Z,33.90
2019-03-30T21:52:42.273Z,34.20
2019-03-30T21:55:11.258Z,29.77
2019-03-30T21:57:40.080Z,31.30
2019-03-30T22:00:10.997Z,32.28
2019-03-30T22:02:40.357Z,26.90
2019-03-30T22:05:08.903Z,33.50
2019-03-30T22:07:37.515Z,26.37
2019-03-30T22:10:07.773Z,27.85
2019-03-30T22:12:37.715Z,25.85
2019-03-30T22:15:06.807Z,25.75
2019-03-30T22:17:35.432Z,26.62
2019-03-30T22:20:04.485Z,26.12
2019-03-30T22:22:33.387Z,25.15
2019-03-30T22:25:02.427Z,24.75
2019-03-30T22:27:31.553Z,22.02
2019-03-30T22:30:01.962Z,18.73
2019-03-30T22:32:31.491Z,24.87
2019-03-30T22:35:00.450Z,23.05
2019-03-30T22:37:29.896Z,18.90
2019-03-30T22:39:58.801Z,19.48
2019-03-30T22:42:27.217Z,24.45
2019-03-30T22:44:56.167Z,22.93
2019-03-30T22:47:24.929Z,22.07
2019-03-30T22:49:54.134Z,18.75
2019-03-30T22:52:22.907Z,19.12
2019-03-30T22:54:52.310Z,18.62
2019-03-30T22:57:21.287Z,26.57
2019-03-30T22:59:49.935Z,20.40
2019-03-30T23:02:18.383Z,19.25
2019-03-30T23:04:47.307Z,20.90
2019-03-30T23:07:15.855Z,22.05
2019-03-30T23:09:44.424Z,17.23
2019-03-30T23:12:12.937Z,19.15
2019-03-30T23:14:41.602Z,19.15
2019-03-30T23:17:10.411Z,17.40
2019-03-30T23:19:39.483Z,17.48
2019-03-30T23:22:08.369Z,14.10
2019-03-30T23:24:37.482Z,20.90
2019-03-30T23:27:06.785Z,20.50
2019-03-30T23:29:35.573Z,18.20
2019-03-30T23:32:04.196Z,18.30
2019-03-30T23:34:33.195Z,16.15
2019-03-30T23:37:02.386Z,23.65
2019-03-30T23:39:32.029Z,16.87
2019-03-30T23:42:00.678Z,15.88
2019-03-30T23:44:30.025Z,15.13
2019-03-30T23:46:58.818Z,16.40
2019-03-30T23:49:28.370Z,15.25
2019-03-30T23:51:57.103Z,17.52
2019-03-30T23:54:27.435Z,15.85
2019-03-30T23:56:56.623Z,15.60
2019-03-30T23:59:25.144Z,12.80
